North Matewan, West Virginia
Current Conditions -  °F | °C
As of 7:55 PM on Monday 24 Nov 2014 (Local Time) from KPBX Reporting Station
Clear Clear  
Wind Chill: 57°   Ceiling: Unl
Heat Index: 57°   Visibility: 10mi
Dew Point: 38°   Wind: 6mph
Humidity: 50%   Direction: 230°SW
Pressure: 29.83"   Gusts: NA
Location:  37.63°N, 82.15°W
Report Text: KPBX 250055Z AUTO 23005KT 10SM CLR 14/04 A2983 RMK AO2 T01380035
Loading
Personal Weather Stations






























Interactive Weather Map New forecast layout! Learn more

10-Day Weather Forecast

Advertisements
Track Severe Weather on mobile